sensor_id;sensor_type;location;lat;lon;timestamp;P1;durP1;ratioP1;P2;durP2;ratioP2
30301;SDS011;17111;52.130;5.028;2023-05-21T00:00:01;0.75;;;0.70;;
30301;SDS011;17111;52.130;5.028;2023-05-21T00:02:28;0.90;;;0.90;;
30301;SDS011;17111;52.130;5.028;2023-05-21T00:04:55;0.82;;;0.82;;
30301;SDS011;17111;52.130;5.028;2023-05-21T00:07:21;0.80;;;0.80;;
30301;SDS011;17111;52.130;5.028;2023-05-21T00:09:48;1.00;;;0.90;;
30301;SDS011;17111;52.130;5.028;2023-05-21T00:12:15;0.70;;;0.70;;
30301;SDS011;17111;52.130;5.028;2023-05-21T00:14:41;0.73;;;0.70;;
30301;SDS011;17111;52.130;5.028;2023-05-21T00:17:08;0.90;;;0.80;;
30301;SDS011;17111;52.130;5.028;2023-05-21T00:19:34;1.42;;;0.85;;
30301;SDS011;17111;52.130;5.028;2023-05-21T00:22:01;0.88;;;0.80;;
30301;SDS011;17111;52.130;5.028;2023-05-21T00:24:28;1.23;;;1.00;;
30301;SDS011;17111;52.130;5.028;2023-05-21T00:26:55;1.45;;;1.00;;
30301;SDS011;17111;52.130;5.028;2023-05-21T00:29:22;1.10;;;1.00;;
30301;SDS011;17111;52.130;5.028;2023-05-21T00:31:49;1.13;;;0.90;;
30301;SDS011;17111;52.130;5.028;2023-05-21T00:34:17;1.02;;;0.85;;
30301;SDS011;17111;52.130;5.028;2023-05-21T00:36:44;1.17;;;0.90;;
30301;SDS011;17111;52.130;5.028;2023-05-21T00:39:11;1.13;;;0.73;;
30301;SDS011;17111;52.130;5.028;2023-05-21T00:41:39;1.10;;;0.90;;
30301;SDS011;17111;52.130;5.028;2023-05-21T00:44:05;1.45;;;0.90;;
30301;SDS011;17111;52.130;5.028;2023-05-21T00:46:32;0.73;;;0.73;;
30301;SDS011;17111;52.130;5.028;2023-05-21T00:48:59;1.30;;;0.82;;
30301;SDS011;17111;52.130;5.028;2023-05-21T00:51:26;1.33;;;0.90;;
30301;SDS011;17111;52.130;5.028;2023-05-21T00:53:55;0.85;;;0.80;;
30301;SDS011;17111;52.130;5.028;2023-05-21T00:56:23;1.42;;;0.80;;
30301;SDS011;17111;52.130;5.028;2023-05-21T00:58:53;1.15;;;0.80;;
30301;SDS011;17111;52.130;5.028;2023-05-21T01:01:22;1.15;;;0.98;;
30301;SDS011;17111;52.130;5.028;2023-05-21T01:03:51;1.48;;;0.90;;
30301;SDS011;17111;52.130;5.028;2023-05-21T01:06:22;0.82;;;0.80;;
30301;SDS011;17111;52.130;5.028;2023-05-21T01:08:49;0.80;;;0.80;;
30301;SDS011;17111;52.130;5.028;2023-05-21T01:11:17;1.65;;;0.90;;
30301;SDS011;17111;52.130;5.028;2023-05-21T01:13:44;0.98;;;0.90;;
30301;SDS011;17111;52.130;5.028;2023-05-21T01:16:12;1.25;;;0.90;;
30301;SDS011;17111;52.130;5.028;2023-05-21T01:18:39;0.77;;;0.60;;
30301;SDS011;17111;52.130;5.028;2023-05-21T01:21:08;1.08;;;0.90;;
30301;SDS011;17111;52.130;5.028;2023-05-21T01:23:35;0.68;;;0.68;;
30301;SDS011;17111;52.130;5.028;2023-05-21T01:26:02;0.95;;;0.70;;
30301;SDS011;17111;52.130;5.028;2023-05-21T01:28:28;1.00;;;0.80;;
30301;SDS011;17111;52.130;5.028;2023-05-21T01:30:55;0.80;;;0.73;;
30301;SDS011;17111;52.130;5.028;2023-05-21T01:33:30;1.13;;;0.82;;
30301;SDS011;17111;52.130;5.028;2023-05-21T01:36:03;0.70;;;0.70;;
30301;SDS011;17111;52.130;5.028;2023-05-21T01:38:44;1.00;;;0.90;;
30301;SDS011;17111;52.130;5.028;2023-05-21T01:41:17;1.35;;;1.10;;
30301;SDS011;17111;52.130;5.028;2023-05-21T01:43:45;1.42;;;0.77;;
30301;SDS011;17111;52.130;5.028;2023-05-21T01:46:13;1.95;;;0.90;;
30301;SDS011;17111;52.130;5.028;2023-05-21T01:48:43;0.82;;;0.70;;
30301;SDS011;17111;52.130;5.028;2023-05-21T01:51:10;0.70;;;0.70;;
30301;SDS011;17111;52.130;5.028;2023-05-21T01:53:38;1.15;;;0.90;;
30301;SDS011;17111;52.130;5.028;2023-05-21T01:56:05;1.05;;;0.90;;
30301;SDS011;17111;52.130;5.028;2023-05-21T01:58:32;1.20;;;0.90;;
30301;SDS011;17111;52.130;5.028;2023-05-21T02:00:59;1.10;;;0.95;;
30301;SDS011;17111;52.130;5.028;2023-05-21T02:03:26;1.38;;;1.05;;
30301;SDS011;17111;52.130;5.028;2023-05-21T02:05:53;1.25;;;0.95;;
30301;SDS011;17111;52.130;5.028;2023-05-21T02:08:21;1.38;;;0.90;;
30301;SDS011;17111;52.130;5.028;2023-05-21T02:10:48;1.40;;;0.90;;
30301;SDS011;17111;52.130;5.028;2023-05-21T02:13:15;0.90;;;0.90;;
30301;SDS011;17111;52.130;5.028;2023-05-21T02:15:45;1.80;;;1.00;;
30301;SDS011;17111;52.130;5.028;2023-05-21T02:18:12;0.93;;;0.80;;
30301;SDS011;17111;52.130;5.028;2023-05-21T02:20:43;1.73;;;0.88;;
30301;SDS011;17111;52.130;5.028;2023-05-21T02:23:10;0.93;;;0.90;;
30301;SDS011;17111;52.130;5.028;2023-05-21T02:25:36;0.80;;;0.80;;
30301;SDS011;17111;52.130;5.028;2023-05-21T02:28:03;0.95;;;0.75;;
30301;SDS011;17111;52.130;5.028;2023-05-21T02:30:30;0.88;;;0.80;;
30301;SDS011;17111;52.130;5.028;2023-05-21T02:32:57;1.33;;;0.93;;
30301;SDS011;17111;52.130;5.028;2023-05-21T02:35:24;0.85;;;0.82;;
30301;SDS011;17111;52.130;5.028;2023-05-21T02:37:51;0.80;;;0.80;;
30301;SDS011;17111;52.130;5.028;2023-05-21T02:40:17;1.45;;;0.75;;
30301;SDS011;17111;52.130;5.028;2023-05-21T02:42:44;1.63;;;0.70;;
30301;SDS011;17111;52.130;5.028;2023-05-21T02:45:11;1.10;;;1.00;;
30301;SDS011;17111;52.130;5.028;2023-05-21T02:47:38;2.17;;;0.95;;
30301;SDS011;17111;52.130;5.028;2023-05-21T02:50:04;1.23;;;1.05;;
30301;SDS011;17111;52.130;5.028;2023-05-21T02:52:32;1.00;;;0.90;;
30301;SDS011;17111;52.130;5.028;2023-05-21T02:54:59;1.05;;;0.93;;
30301;SDS011;17111;52.130;5.028;2023-05-21T02:57:26;1.05;;;0.88;;
30301;SDS011;17111;52.130;5.028;2023-05-21T02:59:52;1.33;;;0.93;;
30301;SDS011;17111;52.130;5.028;2023-05-21T03:02:19;1.45;;;1.10;;
30301;SDS011;17111;52.130;5.028;2023-05-21T03:04:45;1.35;;;1.00;;
30301;SDS011;17111;52.130;5.028;2023-05-21T03:07:13;1.25;;;0.88;;
30301;SDS011;17111;52.130;5.028;2023-05-21T03:09:40;1.48;;;0.75;;
30301;SDS011;17111;52.130;5.028;2023-05-21T03:12:07;0.90;;;0.80;;
30301;SDS011;17111;52.130;5.028;2023-05-21T03:14:34;0.90;;;0.80;;
30301;SDS011;17111;52.130;5.028;2023-05-21T03:17:01;1.23;;;0.88;;
30301;SDS011;17111;52.130;5.028;2023-05-21T03:19:31;1.20;;;0.90;;
30301;SDS011;17111;52.130;5.028;2023-05-21T03:22:02;1.48;;;1.10;;
30301;SDS011;17111;52.130;5.028;2023-05-21T03:24:29;0.82;;;0.82;;
30301;SDS011;17111;52.130;5.028;2023-05-21T03:26:56;1.05;;;0.95;;
30301;SDS011;17111;52.130;5.028;2023-05-21T03:29:24;0.90;;;0.73;;
30301;SDS011;17111;52.130;5.028;2023-05-21T03:31:51;0.98;;;0.90;;
30301;SDS011;17111;52.130;5.028;2023-05-21T03:34:19;1.10;;;0.82;;
30301;SDS011;17111;52.130;5.028;2023-05-21T03:36:46;1.00;;;0.90;;
30301;SDS011;17111;52.130;5.028;2023-05-21T03:39:13;1.23;;;0.90;;
30301;SDS011;17111;52.130;5.028;2023-05-21T03:41:40;0.70;;;0.70;;
30301;SDS011;17111;52.130;5.028;2023-05-21T03:44:06;1.10;;;0.85;;
30301;SDS011;17111;52.130;5.028;2023-05-21T03:46:33;1.33;;;1.05;;
30301;SDS011;17111;52.130;5.028;2023-05-21T03:49:00;1.33;;;1.08;;
30301;SDS011;17111;52.130;5.028;2023-05-21T03:51:27;0.73;;;0.60;;
30301;SDS011;17111;52.130;5.028;2023-05-21T03:53:56;1.17;;;0.90;;
30301;SDS011;17111;52.130;5.028;2023-05-21T03:56:24;1.73;;;1.00;;
30301;SDS011;17111;52.130;5.028;2023-05-21T03:58:51;0.77;;;0.70;;
30301;SDS011;17111;52.130;5.028;2023-05-21T04:01:18;1.65;;;0.95;;
30301;SDS011;17111;52.130;5.028;2023-05-21T04:03:44;1.25;;;0.90;;
30301;SDS011;17111;52.130;5.028;2023-05-21T04:06:12;1.02;;;0.82;;
30301;SDS011;17111;52.130;5.028;2023-05-21T04:08:38;1.00;;;0.90;;
30301;SDS011;17111;52.130;5.028;2023-05-21T04:11:05;1.55;;;1.00;;
30301;SDS011;17111;52.130;5.028;2023-05-21T04:13:31;0.90;;;0.85;;
30301;SDS011;17111;52.130;5.028;2023-05-21T04:15:58;0.85;;;0.70;;
30301;SDS011;17111;52.130;5.028;2023-05-21T04:18:25;1.25;;;1.10;;
30301;SDS011;17111;52.130;5.028;2023-05-21T04:20:52;1.20;;;0.70;;
30301;SDS011;17111;52.130;5.028;2023-05-21T04:23:19;0.80;;;0.80;;
30301;SDS011;17111;52.130;5.028;2023-05-21T04:25:48;0.68;;;0.60;;
30301;SDS011;17111;52.130;5.028;2023-05-21T04:28:16;1.13;;;0.85;;
30301;SDS011;17111;52.130;5.028;2023-05-21T04:30:46;0.70;;;0.70;;
30301;SDS011;17111;52.130;5.028;2023-05-21T04:33:13;0.93;;;0.80;;
30301;SDS011;17111;52.130;5.028;2023-05-21T04:35:44;1.30;;;0.98;;
30301;SDS011;17111;52.130;5.028;2023-05-21T04:38:15;2.65;;;1.25;;
30301;SDS011;17111;52.130;5.028;2023-05-21T04:40:47;1.10;;;0.95;;
30301;SDS011;17111;52.130;5.028;2023-05-21T04:43:15;1.38;;;0.90;;
30301;SDS011;17111;52.130;5.028;2023-05-21T04:45:42;0.98;;;0.88;;
30301;SDS011;17111;52.130;5.028;2023-05-21T04:48:09;1.00;;;0.80;;
30301;SDS011;17111;52.130;5.028;2023-05-21T04:50:35;1.10;;;1.00;;
30301;SDS011;17111;52.130;5.028;2023-05-21T04:53:02;1.02;;;0.93;;
30301;SDS011;17111;52.130;5.028;2023-05-21T04:55:29;0.80;;;0.80;;
30301;SDS011;17111;52.130;5.028;2023-05-21T04:57:55;1.02;;;0.90;;
30301;SDS011;17111;52.130;5.028;2023-05-21T05:00:22;1.15;;;0.80;;
30301;SDS011;17111;52.130;5.028;2023-05-21T05:02:51;2.38;;;0.77;;
30301;SDS011;17111;52.130;5.028;2023-05-21T05:05:18;0.88;;;0.77;;
30301;SDS011;17111;52.130;5.028;2023-05-21T05:07:44;1.42;;;0.90;;
30301;SDS011;17111;52.130;5.028;2023-05-21T05:10:11;2.13;;;0.90;;
30301;SDS011;17111;52.130;5.028;2023-05-21T05:12:38;1.30;;;1.05;;
30301;SDS011;17111;52.130;5.028;2023-05-21T05:15:04;1.25;;;1.00;;
30301;SDS011;17111;52.130;5.028;2023-05-21T05:17:31;1.02;;;0.90;;
30301;SDS011;17111;52.130;5.028;2023-05-21T05:19:59;0.85;;;0.80;;
30301;SDS011;17111;52.130;5.028;2023-05-21T05:22:26;1.00;;;0.90;;
30301;SDS011;17111;52.130;5.028;2023-05-21T05:24:52;1.30;;;0.98;;
30301;SDS011;17111;52.130;5.028;2023-05-21T05:27:19;0.95;;;0.93;;
30301;SDS011;17111;52.130;5.028;2023-05-21T05:29:46;1.55;;;0.98;;
30301;SDS011;17111;52.130;5.028;2023-05-21T05:32:13;1.00;;;0.70;;
30301;SDS011;17111;52.130;5.028;2023-05-21T05:34:39;1.55;;;1.17;;
30301;SDS011;17111;52.130;5.028;2023-05-21T05:37:07;1.10;;;1.00;;
30301;SDS011;17111;52.130;5.028;2023-05-21T05:39:34;1.20;;;0.95;;
30301;SDS011;17111;52.130;5.028;2023-05-21T05:42:00;2.08;;;1.15;;
30301;SDS011;17111;52.130;5.028;2023-05-21T05:44:28;1.67;;;1.25;;
30301;SDS011;17111;52.130;5.028;2023-05-21T05:46:55;1.35;;;0.90;;
30301;SDS011;17111;52.130;5.028;2023-05-21T05:49:21;1.17;;;0.90;;
30301;SDS011;17111;52.130;5.028;2023-05-21T05:51:48;1.27;;;0.75;;
30301;SDS011;17111;52.130;5.028;2023-05-21T05:54:14;1.30;;;1.10;;
30301;SDS011;17111;52.130;5.028;2023-05-21T05:56:41;0.82;;;0.82;;
30301;SDS011;17111;52.130;5.028;2023-05-21T05:59:07;1.20;;;0.90;;
30301;SDS011;17111;52.130;5.028;2023-05-21T06:01:34;0.88;;;0.85;;
30301;SDS011;17111;52.130;5.028;2023-05-21T06:04:00;1.58;;;0.70;;
30301;SDS011;17111;52.130;5.028;2023-05-21T06:06:27;0.90;;;0.77;;
30301;SDS011;17111;52.130;5.028;2023-05-21T06:08:54;1.33;;;0.90;;
30301;SDS011;17111;52.130;5.028;2023-05-21T06:11:20;0.65;;;0.65;;
30301;SDS011;17111;52.130;5.028;2023-05-21T06:13:47;1.50;;;0.90;;
30301;SDS011;17111;52.130;5.028;2023-05-21T06:16:14;1.13;;;1.02;;
30301;SDS011;17111;52.130;5.028;2023-05-21T06:18:41;0.70;;;0.70;;
30301;SDS011;17111;52.130;5.028;2023-05-21T06:21:08;0.95;;;0.80;;
30301;SDS011;17111;52.130;5.028;2023-05-21T06:23:34;1.00;;;0.95;;
30301;SDS011;17111;52.130;5.028;2023-05-21T06:26:03;1.13;;;0.90;;
30301;SDS011;17111;52.130;5.028;2023-05-21T06:28:30;0.85;;;0.80;;
30301;SDS011;17111;52.130;5.028;2023-05-21T06:30:56;0.80;;;0.80;;
30301;SDS011;17111;52.130;5.028;2023-05-21T06:33:23;1.30;;;0.85;;
30301;SDS011;17111;52.130;5.028;2023-05-21T06:35:50;0.90;;;0.90;;
30301;SDS011;17111;52.130;5.028;2023-05-21T06:38:16;1.48;;;1.08;;
30301;SDS011;17111;52.130;5.028;2023-05-21T06:40:43;1.60;;;0.90;;
30301;SDS011;17111;52.130;5.028;2023-05-21T06:43:12;1.20;;;0.90;;
30301;SDS011;17111;52.130;5.028;2023-05-21T06:45:39;1.13;;;1.02;;
30301;SDS011;17111;52.130;5.028;2023-05-21T06:48:06;1.00;;;0.88;;
30301;SDS011;17111;52.130;5.028;2023-05-21T06:50:33;1.05;;;0.93;;
30301;SDS011;17111;52.130;5.028;2023-05-21T06:52:59;1.10;;;0.80;;
30301;SDS011;17111;52.130;5.028;2023-05-21T06:55:26;1.77;;;1.10;;
30301;SDS011;17111;52.130;5.028;2023-05-21T06:57:53;1.40;;;1.10;;
30301;SDS011;17111;52.130;5.028;2023-05-21T07:00:19;2.85;;;1.00;;
30301;SDS011;17111;52.130;5.028;2023-05-21T07:02:46;0.95;;;0.90;;
30301;SDS011;17111;52.130;5.028;2023-05-21T07:05:13;1.23;;;1.00;;
30301;SDS011;17111;52.130;5.028;2023-05-21T07:07:39;1.60;;;1.20;;
30301;SDS011;17111;52.130;5.028;2023-05-21T07:10:06;1.00;;;0.90;;
30301;SDS011;17111;52.130;5.028;2023-05-21T07:12:33;1.75;;;1.10;;
30301;SDS011;17111;52.130;5.028;2023-05-21T07:15:00;1.40;;;1.20;;
30301;SDS011;17111;52.130;5.028;2023-05-21T07:17:27;1.33;;;1.00;;
30301;SDS011;17111;52.130;5.028;2023-05-21T07:19:53;1.90;;;1.30;;
30301;SDS011;17111;52.130;5.028;2023-05-21T07:22:20;1.85;;;1.23;;
30301;SDS011;17111;52.130;5.028;2023-05-21T07:24:46;1.10;;;0.95;;
30301;SDS011;17111;52.130;5.028;2023-05-21T07:27:13;1.17;;;1.02;;
30301;SDS011;17111;52.130;5.028;2023-05-21T07:29:51;1.55;;;1.20;;
30301;SDS011;17111;52.130;5.028;2023-05-21T07:32:17;1.65;;;1.10;;
30301;SDS011;17111;52.130;5.028;2023-05-21T07:34:44;1.45;;;1.20;;
30301;SDS011;17111;52.130;5.028;2023-05-21T07:37:10;1.33;;;1.00;;
30301;SDS011;17111;52.130;5.028;2023-05-21T07:39:38;1.38;;;1.13;;
30301;SDS011;17111;52.130;5.028;2023-05-21T07:42:05;1.73;;;1.10;;
30301;SDS011;17111;52.130;5.028;2023-05-21T07:44:31;1.00;;;0.82;;
30301;SDS011;17111;52.130;5.028;2023-05-21T07:46:58;0.90;;;0.80;;
30301;SDS011;17111;52.130;5.028;2023-05-21T07:49:24;1.00;;;0.90;;
30301;SDS011;17111;52.130;5.028;2023-05-21T07:51:51;0.93;;;0.85;;
30301;SDS011;17111;52.130;5.028;2023-05-21T07:54:18;1.45;;;0.90;;
30301;SDS011;17111;52.130;5.028;2023-05-21T07:56:44;1.17;;;0.90;;
30301;SDS011;17111;52.130;5.028;2023-05-21T07:59:13;0.95;;;0.93;;
30301;SDS011;17111;52.130;5.028;2023-05-21T08:01:39;1.60;;;1.00;;
30301;SDS011;17111;52.130;5.028;2023-05-21T08:04:07;1.58;;;0.93;;
30301;SDS011;17111;52.130;5.028;2023-05-21T08:06:34;1.10;;;1.00;;
30301;SDS011;17111;52.130;5.028;2023-05-21T08:09:03;2.08;;;1.45;;
30301;SDS011;17111;52.130;5.028;2023-05-21T08:11:31;1.20;;;1.10;;
30301;SDS011;17111;52.130;5.028;2023-05-21T08:13:58;1.30;;;1.10;;
30301;SDS011;17111;52.130;5.028;2023-05-21T08:16:24;1.42;;;1.17;;
30301;SDS011;17111;52.130;5.028;2023-05-21T08:18:51;1.23;;;1.10;;
30301;SDS011;17111;52.130;5.028;2023-05-21T08:21:18;1.45;;;1.20;;
30301;SDS011;17111;52.130;5.028;2023-05-21T08:23:44;1.40;;;1.10;;
30301;SDS011;17111;52.130;5.028;2023-05-21T08:26:11;1.05;;;0.98;;
30301;SDS011;17111;52.130;5.028;2023-05-21T08:28:38;1.17;;;1.08;;
30301;SDS011;17111;52.130;5.028;2023-05-21T08:31:04;1.30;;;1.00;;
30301;SDS011;17111;52.130;5.028;2023-05-21T08:33:33;1.27;;;0.77;;
30301;SDS011;17111;52.130;5.028;2023-05-21T08:36:02;1.58;;;1.17;;
30301;SDS011;17111;52.130;5.028;2023-05-21T08:38:30;1.00;;;0.90;;
30301;SDS011;17111;52.130;5.028;2023-05-21T08:40:57;0.98;;;0.98;;
30301;SDS011;17111;52.130;5.028;2023-05-21T08:43:27;1.10;;;1.00;;
30301;SDS011;17111;52.130;5.028;2023-05-21T08:45:55;1.42;;;1.25;;
30301;SDS011;17111;52.130;5.028;2023-05-21T08:48:24;1.33;;;1.23;;
30301;SDS011;17111;52.130;5.028;2023-05-21T08:50:51;1.25;;;1.08;;
30301;SDS011;17111;52.130;5.028;2023-05-21T08:53:19;1.40;;;1.10;;
30301;SDS011;17111;52.130;5.028;2023-05-21T08:55:53;1.40;;;1.00;;
30301;SDS011;17111;52.130;5.028;2023-05-21T08:58:21;2.42;;;1.20;;
30301;SDS011;17111;52.130;5.028;2023-05-21T09:00:48;1.00;;;0.90;;
30301;SDS011;17111;52.130;5.028;2023-05-21T09:03:14;2.05;;;1.50;;
30301;SDS011;17111;52.130;5.028;2023-05-21T09:05:42;1.17;;;0.95;;
30301;SDS011;17111;52.130;5.028;2023-05-21T09:08:17;1.67;;;1.08;;
30301;SDS011;17111;52.130;5.028;2023-05-21T09:10:47;1.35;;;1.17;;
30301;SDS011;17111;52.130;5.028;2023-05-21T09:13:16;3.83;;;1.50;;
30301;SDS011;17111;52.130;5.028;2023-05-21T09:15:43;1.40;;;1.10;;
30301;SDS011;17111;52.130;5.028;2023-05-21T09:18:11;1.33;;;1.10;;
30301;SDS011;17111;52.130;5.028;2023-05-21T09:20:40;2.33;;;1.83;;
30301;SDS011;17111;52.130;5.028;2023-05-21T09:23:07;1.40;;;1.30;;
30301;SDS011;17111;52.130;5.028;2023-05-21T09:25:48;1.70;;;1.20;;
30301;SDS011;17111;52.130;5.028;2023-05-21T09:28:15;1.23;;;1.13;;
30301;SDS011;17111;52.130;5.028;2023-05-21T09:30:43;1.55;;;1.30;;
30301;SDS011;17111;52.130;5.028;2023-05-21T09:33:11;1.45;;;1.10;;
30301;SDS011;17111;52.130;5.028;2023-05-21T09:35:43;1.67;;;1.20;;
30301;SDS011;17111;52.130;5.028;2023-05-21T09:38:11;1.88;;;1.30;;
30301;SDS011;17111;52.130;5.028;2023-05-21T09:40:42;1.20;;;1.10;;
30301;SDS011;17111;52.130;5.028;2023-05-21T09:43:14;2.10;;;1.60;;
30301;SDS011;17111;52.130;5.028;2023-05-21T09:45:51;1.48;;;1.20;;
30301;SDS011;17111;52.130;5.028;2023-05-21T09:48:31;1.45;;;1.25;;
30301;SDS011;17111;52.130;5.028;2023-05-21T09:51:12;1.35;;;1.25;;
30301;SDS011;17111;52.130;5.028;2023-05-21T09:53:42;1.83;;;1.33;;
30301;SDS011;17111;52.130;5.028;2023-05-21T09:56:24;1.95;;;1.30;;
30301;SDS011;17111;52.130;5.028;2023-05-21T09:58:55;1.45;;;1.20;;
30301;SDS011;17111;52.130;5.028;2023-05-21T10:01:23;1.45;;;1.20;;
30301;SDS011;17111;52.130;5.028;2023-05-21T10:03:54;1.58;;;1.10;;
30301;SDS011;17111;52.130;5.028;2023-05-21T10:06:25;1.30;;;1.15;;
30301;SDS011;17111;52.130;5.028;2023-05-21T10:08:59;1.65;;;1.30;;
30301;SDS011;17111;52.130;5.028;2023-05-21T10:11:31;1.30;;;1.20;;
30301;SDS011;17111;52.130;5.028;2023-05-21T10:14:00;1.92;;;1.27;;
30301;SDS011;17111;52.130;5.028;2023-05-21T10:16:33;1.60;;;1.50;;
30301;SDS011;17111;52.130;5.028;2023-05-21T10:19:01;1.58;;;1.30;;
30301;SDS011;17111;52.130;5.028;2023-05-21T10:21:29;1.50;;;1.20;;
30301;SDS011;17111;52.130;5.028;2023-05-21T10:23:58;2.45;;;1.40;;
30301;SDS011;17111;52.130;5.028;2023-05-21T10:26:27;1.25;;;1.08;;
30301;SDS011;17111;52.130;5.028;2023-05-21T10:28:55;2.03;;;1.48;;
30301;SDS011;17111;52.130;5.028;2023-05-21T10:31:26;2.10;;;1.50;;
30301;SDS011;17111;52.130;5.028;2023-05-21T10:33:53;1.67;;;1.23;;
30301;SDS011;17111;52.130;5.028;2023-05-21T10:36:22;1.15;;;1.05;;
30301;SDS011;17111;52.130;5.028;2023-05-21T10:38:50;1.55;;;1.38;;
30301;SDS011;17111;52.130;5.028;2023-05-21T10:41:18;2.35;;;1.20;;
30301;SDS011;17111;52.130;5.028;2023-05-21T10:43:48;1.80;;;1.35;;
30301;SDS011;17111;52.130;5.028;2023-05-21T10:49:44;1.55;;;1.30;;
30301;SDS011;17111;52.130;5.028;2023-05-21T10:52:37;1.70;;;1.23;;
30301;SDS011;17111;52.130;5.028;2023-05-21T10:55:31;1.63;;;1.10;;
30301;SDS011;17111;52.130;5.028;2023-05-21T11:01:01;1.25;;;1.15;;
30301;SDS011;17111;52.130;5.028;2023-05-21T11:03:29;2.03;;;1.13;;
30301;SDS011;17111;52.130;5.028;2023-05-21T11:06:01;1.58;;;1.30;;
30301;SDS011;17111;52.130;5.028;2023-05-21T11:08:31;1.38;;;1.27;;
30301;SDS011;17111;52.130;5.028;2023-05-21T11:11:02;1.65;;;1.30;;
30301;SDS011;17111;52.130;5.028;2023-05-21T11:13:43;1.58;;;1.30;;
30301;SDS011;17111;52.130;5.028;2023-05-21T11:16:17;2.03;;;1.52;;
30301;SDS011;17111;52.130;5.028;2023-05-21T11:21:11;1.80;;;1.20;;
30301;SDS011;17111;52.130;5.028;2023-05-21T11:23:55;1.75;;;1.20;;
30301;SDS011;17111;52.130;5.028;2023-05-21T11:26:25;1.90;;;1.50;;
30301;SDS011;17111;52.130;5.028;2023-05-21T11:31:29;3.15;;;1.40;;
30301;SDS011;17111;52.130;5.028;2023-05-21T11:36:36;1.70;;;1.20;;
30301;SDS011;17111;52.130;5.028;2023-05-21T11:39:07;1.88;;;1.33;;
30301;SDS011;17111;52.130;5.028;2023-05-21T11:41:55;1.52;;;1.33;;
30301;SDS011;17111;52.130;5.028;2023-05-21T11:44:42;1.95;;;1.23;;
30301;SDS011;17111;52.130;5.028;2023-05-21T11:47:11;2.38;;;1.50;;
30301;SDS011;17111;52.130;5.028;2023-05-21T11:49:40;2.85;;;1.50;;
30301;SDS011;17111;52.130;5.028;2023-05-21T11:52:08;1.33;;;1.23;;
30301;SDS011;17111;52.130;5.028;2023-05-21T11:54:42;1.33;;;1.05;;
30301;SDS011;17111;52.130;5.028;2023-05-21T11:57:17;2.20;;;1.58;;
30301;SDS011;17111;52.130;5.028;2023-05-21T11:59:45;1.80;;;1.50;;
30301;SDS011;17111;52.130;5.028;2023-05-21T12:02:15;1.30;;;1.20;;
30301;SDS011;17111;52.130;5.028;2023-05-21T12:04:44;2.53;;;1.38;;
30301;SDS011;17111;52.130;5.028;2023-05-21T12:07:12;2.17;;;1.35;;
30301;SDS011;17111;52.130;5.028;2023-05-21T12:09:40;2.20;;;1.58;;
30301;SDS011;17111;52.130;5.028;2023-05-21T12:12:18;1.60;;;1.45;;
30301;SDS011;17111;52.130;5.028;2023-05-21T12:14:47;1.88;;;1.27;;
30301;SDS011;17111;52.130;5.028;2023-05-21T12:17:15;2.10;;;1.42;;
30301;SDS011;17111;52.130;5.028;2023-05-21T12:19:44;2.40;;;1.77;;
30301;SDS011;17111;52.130;5.028;2023-05-21T12:22:11;2.65;;;1.60;;
30301;SDS011;17111;52.130;5.028;2023-05-21T12:24:38;1.67;;;1.50;;
30301;SDS011;17111;52.130;5.028;2023-05-21T12:27:05;1.75;;;1.40;;
30301;SDS011;17111;52.130;5.028;2023-05-21T12:29:38;1.73;;;1.50;;
30301;SDS011;17111;52.130;5.028;2023-05-21T12:32:08;2.10;;;1.65;;
30301;SDS011;17111;52.130;5.028;2023-05-21T12:39:37;1.63;;;1.25;;
30301;SDS011;17111;52.130;5.028;2023-05-21T12:42:05;2.08;;;1.40;;
30301;SDS011;17111;52.130;5.028;2023-05-21T12:44:32;1.67;;;1.45;;
30301;SDS011;17111;52.130;5.028;2023-05-21T12:47:02;2.03;;;1.60;;
30301;SDS011;17111;52.130;5.028;2023-05-21T12:49:29;3.92;;;1.70;;
30301;SDS011;17111;52.130;5.028;2023-05-21T12:51:57;2.97;;;1.58;;
30301;SDS011;17111;52.130;5.028;2023-05-21T12:54:29;2.33;;;1.30;;
30301;SDS011;17111;52.130;5.028;2023-05-21T12:56:57;2.30;;;1.63;;
30301;SDS011;17111;52.130;5.028;2023-05-21T12:59:38;2.90;;;1.70;;
30301;SDS011;17111;52.130;5.028;2023-05-21T13:04:58;2.10;;;1.58;;
30301;SDS011;17111;52.130;5.028;2023-05-21T13:07:29;1.75;;;1.33;;
30301;SDS011;17111;52.130;5.028;2023-05-21T13:09:57;2.03;;;1.45;;
30301;SDS011;17111;52.130;5.028;2023-05-21T13:12:26;3.05;;;1.55;;
30301;SDS011;17111;52.130;5.028;2023-05-21T13:14:55;1.50;;;1.30;;
30301;SDS011;17111;52.130;5.028;2023-05-21T13:17:23;2.17;;;1.58;;
30301;SDS011;17111;52.130;5.028;2023-05-21T13:20:04;2.55;;;1.55;;
30301;SDS011;17111;52.130;5.028;2023-05-21T13:22:39;1.85;;;1.58;;
30301;SDS011;17111;52.130;5.028;2023-05-21T13:25:13;3.00;;;2.00;;
30301;SDS011;17111;52.130;5.028;2023-05-21T13:27:42;2.75;;;1.55;;
30301;SDS011;17111;52.130;5.028;2023-05-21T13:30:09;2.20;;;1.52;;
30301;SDS011;17111;52.130;5.028;2023-05-21T13:32:39;1.83;;;1.50;;
30301;SDS011;17111;52.130;5.028;2023-05-21T13:35:07;2.80;;;1.73;;
30301;SDS011;17111;52.130;5.028;2023-05-21T13:37:35;1.70;;;1.50;;
30301;SDS011;17111;52.130;5.028;2023-05-21T13:40:05;1.75;;;1.50;;
30301;SDS011;17111;52.130;5.028;2023-05-21T13:42:36;2.20;;;1.50;;
30301;SDS011;17111;52.130;5.028;2023-05-21T13:45:04;3.80;;;1.98;;
30301;SDS011;17111;52.130;5.028;2023-05-21T13:47:31;2.10;;;1.55;;
30301;SDS011;17111;52.130;5.028;2023-05-21T13:49:59;2.60;;;1.60;;
30301;SDS011;17111;52.130;5.028;2023-05-21T13:52:25;1.90;;;1.60;;
30301;SDS011;17111;52.130;5.028;2023-05-21T13:54:52;2.72;;;1.70;;
30301;SDS011;17111;52.130;5.028;2023-05-21T13:57:19;1.33;;;1.23;;
30301;SDS011;17111;52.130;5.028;2023-05-21T13:59:45;3.08;;;1.48;;
30301;SDS011;17111;52.130;5.028;2023-05-21T14:02:12;4.20;;;1.88;;
30301;SDS011;17111;52.130;5.028;2023-05-21T14:04:39;2.33;;;1.50;;
30301;SDS011;17111;52.130;5.028;2023-05-21T14:07:06;2.55;;;1.80;;
30301;SDS011;17111;52.130;5.028;2023-05-21T14:09:33;2.30;;;1.65;;
30301;SDS011;17111;52.130;5.028;2023-05-21T14:11:59;1.70;;;1.40;;
30301;SDS011;17111;52.130;5.028;2023-05-21T14:14:26;1.88;;;1.35;;
30301;SDS011;17111;52.130;5.028;2023-05-21T14:16:53;1.95;;;1.50;;
30301;SDS011;17111;52.130;5.028;2023-05-21T14:19:20;1.52;;;1.33;;
30301;SDS011;17111;52.130;5.028;2023-05-21T14:21:52;2.63;;;1.58;;
30301;SDS011;17111;52.130;5.028;2023-05-21T14:24:18;1.77;;;1.45;;
30301;SDS011;17111;52.130;5.028;2023-05-21T14:26:45;2.90;;;1.40;;
30301;SDS011;17111;52.130;5.028;2023-05-21T14:29:13;2.30;;;1.63;;
30301;SDS011;17111;52.130;5.028;2023-05-21T14:31:39;2.20;;;1.80;;
30301;SDS011;17111;52.130;5.028;2023-05-21T14:34:06;2.70;;;1.70;;
30301;SDS011;17111;52.130;5.028;2023-05-21T14:36:33;1.90;;;1.30;;
30301;SDS011;17111;52.130;5.028;2023-05-21T14:39:01;2.63;;;1.60;;
30301;SDS011;17111;52.130;5.028;2023-05-21T14:41:28;1.90;;;1.65;;
30301;SDS011;17111;52.130;5.028;2023-05-21T14:43:54;2.33;;;1.95;;
30301;SDS011;17111;52.130;5.028;2023-05-21T14:46:21;3.17;;;1.65;;
30301;SDS011;17111;52.130;5.028;2023-05-21T14:48:48;4.50;;;1.60;;
30301;SDS011;17111;52.130;5.028;2023-05-21T14:51:14;1.73;;;1.30;;
30301;SDS011;17111;52.130;5.028;2023-05-21T14:53:41;2.28;;;1.83;;
30301;SDS011;17111;52.130;5.028;2023-05-21T14:56:08;1.95;;;1.55;;
30301;SDS011;17111;52.130;5.028;2023-05-21T14:58:34;1.83;;;1.50;;
30301;SDS011;17111;52.130;5.028;2023-05-21T15:01:01;2.33;;;1.80;;
30301;SDS011;17111;52.130;5.028;2023-05-21T15:03:29;3.72;;;2.08;;
30301;SDS011;17111;52.130;5.028;2023-05-21T15:05:56;2.55;;;1.52;;
30301;SDS011;17111;52.130;5.028;2023-05-21T15:08:24;4.20;;;1.40;;
30301;SDS011;17111;52.130;5.028;2023-05-21T15:10:51;2.75;;;2.00;;
30301;SDS011;17111;52.130;5.028;2023-05-21T15:13:17;2.70;;;1.80;;
30301;SDS011;17111;52.130;5.028;2023-05-21T15:15:44;3.85;;;1.70;;